Time,TemperatureF,DewpointF,PressureIn,WindDirection,WindDirectionDegrees,WindSpeedMPH,WindSpeedGustMPH,Humidity,HourlyPrecipIn,Conditions,Clouds,dailyrainin,SolarRadiationWatts/m^2,SoftwareType,DateUTC
2013-08-03 00:12:00,60.0,42.0,-100.00,SE,128,7.0,13.0,52,0.00,,,0.00,0.000000,,2013-08-03 06:12:00,
2013-08-03 00:22:00,60.0,42.0,-100.00,SE,128,7.0,13.0,52,0.00,,,0.00,0.000000,,2013-08-03 06:22:00,
2013-08-03 00:32:00,60.0,42.0,-100.00,SE,128,7.0,13.0,52,0.00,,,0.00,0.000000,,2013-08-03 06:32:00,
2013-08-03 00:42:00,60.0,42.0,-100.00,SE,128,7.0,13.0,52,0.00,,,0.00,0.000000,,2013-08-03 06:42:00,
2013-08-03 01:12:00,59.0,42.0,-100.00,SE,135,10.0,13.0,53,0.00,,,0.00,0.000000,,2013-08-03 07:12:00,
2013-08-03 01:22:00,59.0,42.0,-100.00,SE,135,10.0,13.0,53,0.00,,,0.00,0.000000,,2013-08-03 07:22:00,
2013-08-03 01:32:00,59.0,42.0,-100.00,SE,135,10.0,13.0,53,0.00,,,0.00,0.000000,,2013-08-03 07:32:00,
2013-08-03 01:43:00,59.0,42.0,-100.00,SE,135,10.0,13.0,53,0.00,,,0.00,0.000000,,2013-08-03 07:43:00,
2013-08-03 02:22:00,57.0,42.0,-100.00,SE,133,7.0,13.0,58,0.00,,,0.00,0.000000,,2013-08-03 08:22:00,
2013-08-03 02:32:00,57.0,42.0,-100.00,SE,133,7.0,13.0,58,0.00,,,0.00,0.000000,,2013-08-03 08:32:00,
2013-08-03 02:43:00,57.0,42.0,-100.00,SE,133,7.0,13.0,58,0.00,,,0.00,0.000000,,2013-08-03 08:43:00,
2013-08-03 03:12:00,57.0,41.0,-100.00,East,98,7.0,11.0,55,0.00,,,0.00,0.000000,,2013-08-03 09:12:00,
2013-08-03 03:22:00,57.0,41.0,-100.00,East,98,7.0,11.0,55,0.00,,,0.00,0.000000,,2013-08-03 09:22:00,
2013-08-03 03:32:00,57.0,41.0,-100.00,East,98,7.0,11.0,55,0.00,,,0.00,0.000000,,2013-08-03 09:32:00,
2013-08-03 03:43:00,57.0,41.0,-100.00,East,98,7.0,11.0,55,0.00,,,0.00,0.000000,,2013-08-03 09:43:00,
2013-08-03 04:22:00,57.0,41.0,-100.00,SSE,147,8.0,12.0,55,0.00,,,0.00,0.000000,,2013-08-03 10:22:00,
2013-08-03 04:32:00,57.0,41.0,-100.00,SSE,147,8.0,12.0,55,0.00,,,0.00,0.000000,,2013-08-03 10:32:00,
2013-08-03 04:42:00,57.0,41.0,-100.00,SSE,147,8.0,12.0,55,0.00,,,0.00,0.000000,,2013-08-03 10:42:00,
2013-08-03 05:12:00,56.0,41.0,-100.00,SE,138,4.0,9.0,56,-99.99,,,0.00,0.000000,,2013-08-03 11:12:00,
2013-08-03 05:22:00,56.0,41.0,-100.00,SE,138,4.0,9.0,56,-99.99,,,0.00,0.000000,,2013-08-03 11:22:00,
2013-08-03 05:32:00,56.0,41.0,-100.00,SE,138,4.0,9.0,56,-99.99,,,0.00,0.000000,,2013-08-03 11:32:00,
2013-08-03 05:43:00,56.0,41.0,-100.00,SE,138,4.0,9.0,56,-99.99,,,0.00,0.000000,,2013-08-03 11:43:00,
2013-08-03 06:12:00,55.0,41.0,-100.00,East,91,4.0,9.0,59,0.00,,,0.00,0.000000,,2013-08-03 12:12:00,
2013-08-03 06:22:00,55.0,41.0,-100.00,East,91,4.0,9.0,59,0.00,,,0.00,0.000000,,2013-08-03 12:22:00,
2013-08-03 06:32:00,55.0,41.0,-100.00,East,91,4.0,9.0,59,0.00,,,0.00,0.000000,,2013-08-03 12:32:00,
2013-08-03 06:43:00,55.0,41.0,-100.00,East,91,4.0,9.0,59,0.00,,,0.00,0.000000,,2013-08-03 12:43:00,
2013-08-03 07:12:00,56.0,43.0,-100.00,NW,318,3.0,7.0,62,0.00,,,0.00,9.000000,,2013-08-03 13:12:00,
2013-08-03 07:22:00,56.0,43.0,-100.00,NW,318,3.0,7.0,62,0.00,,,0.00,9.000000,,2013-08-03 13:22:00,
2013-08-03 07:33:00,56.0,43.0,-100.00,NW,318,3.0,7.0,62,0.00,,,0.00,9.000000,,2013-08-03 13:33:00,
2013-08-03 07:43:00,56.0,43.0,-100.00,NW,318,3.0,7.0,62,0.00,,,0.00,9.000000,,2013-08-03 13:43:00,
2013-08-03 09:32:00,62.0,44.0,-100.00,SSE,151,9.0,11.0,51,-99.99,,,0.00,500.000000,,2013-08-03 15:32:00,
2013-08-03 09:43:00,62.0,44.0,-100.00,SSE,151,9.0,11.0,51,-99.99,,,0.00,500.000000,,2013-08-03 15:43:00,
2013-08-03 10:12:00,68.0,45.0,-100.00,SE,132,8.0,16.0,43,0.00,,,0.00,583.000000,,2013-08-03 16:12:00,
2013-08-03 10:23:00,68.0,45.0,-100.00,SE,132,8.0,16.0,43,0.00,,,0.00,583.000000,,2013-08-03 16:23:00,
2013-08-03 10:33:00,68.0,45.0,-100.00,SE,132,8.0,16.0,43,0.00,,,0.00,583.000000,,2013-08-03 16:33:00,
2013-08-03 10:43:00,68.0,45.0,-100.00,SE,132,8.0,16.0,43,0.00,,,0.00,583.000000,,2013-08-03 16:43:00,
2013-08-03 12:12:00,71.0,47.0,-100.00,NNW,348,9.0,14.0,42,0.00,,,0.00,655.000000,,2013-08-03 18:12:00,
2013-08-03 12:22:00,71.0,47.0,-100.00,NNW,348,9.0,14.0,42,0.00,,,0.00,655.000000,,2013-08-03 18:22:00,
2013-08-03 12:32:00,71.0,47.0,-100.00,NNW,348,9.0,14.0,42,0.00,,,0.00,655.000000,,2013-08-03 18:32:00,
2013-08-03 12:43:00,71.0,47.0,-100.00,NNW,348,9.0,14.0,42,0.00,,,0.00,655.000000,,2013-08-03 18:43:00,
2013-08-03 13:12:00,68.0,47.0,-100.00,NW,311,9.0,14.0,47,0.00,,,0.00,402.000000,,2013-08-03 19:12:00,
2013-08-03 13:22:00,68.0,47.0,-100.00,NW,311,9.0,14.0,47,0.00,,,0.00,402.000000,,2013-08-03 19:22:00,
2013-08-03 13:32:00,68.0,47.0,-100.00,NW,311,9.0,14.0,47,0.00,,,0.00,402.000000,,2013-08-03 19:32:00,
2013-08-03 13:43:00,68.0,47.0,-100.00,NW,311,9.0,14.0,47,0.00,,,0.00,402.000000,,2013-08-03 19:43:00,
2013-08-03 14:12:00,69.0,49.0,-100.00,NW,309,4.0,14.0,49,0.00,,,0.00,288.000000,,2013-08-03 20:12:00,
2013-08-03 14:22:00,69.0,49.0,-100.00,NW,309,4.0,14.0,49,0.00,,,0.00,288.000000,,2013-08-03 20:22:00,
2013-08-03 14:32:00,69.0,49.0,-100.00,NW,309,4.0,14.0,49,0.00,,,0.00,288.000000,,2013-08-03 20:32:00,
2013-08-03 14:42:00,69.0,49.0,-100.00,NW,309,4.0,14.0,49,0.00,,,0.00,288.000000,,2013-08-03 20:42:00,
2013-08-03 15:12:00,76.0,46.0,-100.00,WNW,286,3.0,11.0,35,0.00,,,0.00,786.000000,,2013-08-03 21:12:00,
2013-08-03 15:22:00,76.0,46.0,-100.00,WNW,286,3.0,11.0,35,0.00,,,0.00,786.000000,,2013-08-03 21:22:00,
2013-08-03 15:32:00,76.0,46.0,-100.00,WNW,286,3.0,11.0,35,0.00,,,0.00,786.000000,,2013-08-03 21:32:00,
2013-08-03 15:42:00,76.0,46.0,-100.00,WNW,286,3.0,11.0,35,0.00,,,0.00,786.000000,,2013-08-03 21:42:00,
2013-08-03 16:12:00,78.0,45.0,-100.00,East,91,6.0,14.0,31,0.00,,,0.00,825.000000,,2013-08-03 22:12:00,
2013-08-03 16:22:00,78.0,45.0,-100.00,East,91,6.0,14.0,31,0.00,,,0.00,825.000000,,2013-08-03 22:22:00,
2013-08-03 16:32:00,78.0,45.0,-100.00,East,91,6.0,14.0,31,0.00,,,0.00,825.000000,,2013-08-03 22:32:00,
2013-08-03 16:43:00,78.0,45.0,-100.00,East,91,6.0,14.0,31,0.00,,,0.00,825.000000,,2013-08-03 22:43:00,
2013-08-03 17:12:00,77.0,41.0,-100.00,SE,125,11.0,19.0,28,-99.99,,,0.00,561.000000,,2013-08-03 23:12:00,
2013-08-03 17:22:00,77.0,41.0,-100.00,SE,125,11.0,19.0,28,-99.99,,,0.00,561.000000,,2013-08-03 23:22:00,
2013-08-03 17:32:00,77.0,41.0,-100.00,SE,125,11.0,19.0,28,-99.99,,,0.00,561.000000,,2013-08-03 23:32:00,
2013-08-03 17:42:00,77.0,41.0,-100.00,SE,125,11.0,19.0,28,-99.99,,,0.00,561.000000,,2013-08-03 23:42:00,
2013-08-03 18:12:00,68.0,43.0,-100.00,SSE,154,11.0,17.0,40,0.00,,,-99.99,215.000000,,2013-08-04 00:12:00,
2013-08-03 18:22:00,68.0,43.0,-100.00,SSE,154,11.0,17.0,40,0.00,,,-99.99,215.000000,,2013-08-04 00:22:00,
2013-08-03 18:32:00,68.0,43.0,-100.00,SSE,154,11.0,17.0,40,0.00,,,-99.99,215.000000,,2013-08-04 00:32:00,
2013-08-03 18:42:00,68.0,43.0,-100.00,SSE,154,11.0,17.0,40,0.00,,,-99.99,215.000000,,2013-08-04 00:42:00,
2013-08-03 19:12:00,68.0,44.0,-100.00,SSE,154,8.0,15.0,42,0.00,,,0.00,271.000000,,2013-08-04 01:12:00,
2013-08-03 19:22:00,68.0,44.0,-100.00,SSE,154,8.0,15.0,42,0.00,,,0.00,271.000000,,2013-08-04 01:22:00,
2013-08-03 19:32:00,68.0,44.0,-100.00,SSE,154,8.0,15.0,42,0.00,,,0.00,271.000000,,2013-08-04 01:32:00,
2013-08-03 19:42:00,68.0,44.0,-100.00,SSE,154,8.0,15.0,42,0.00,,,0.00,271.000000,,2013-08-04 01:42:00,
2013-08-03 20:12:00,64.0,44.0,-100.00,SE,142,8.0,15.0,49,0.00,,,0.00,76.000000,,2013-08-04 02:12:00,
2013-08-03 20:22:00,64.0,44.0,-100.00,SE,142,8.0,15.0,49,0.00,,,0.00,76.000000,,2013-08-04 02:22:00,
2013-08-03 20:32:00,64.0,44.0,-100.00,SE,142,8.0,15.0,49,0.00,,,0.00,76.000000,,2013-08-04 02:32:00,
2013-08-03 20:42:00,64.0,44.0,-100.00,SE,142,8.0,15.0,49,0.00,,,0.00,76.000000,,2013-08-04 02:42:00,
2013-08-03 21:11:00,62.0,45.0,-100.00,North,354,14.0,18.0,53,0.00,,,0.00,11.000000,,2013-08-04 03:11:00,
2013-08-03 21:22:00,62.0,45.0,-100.00,North,354,14.0,18.0,53,0.00,,,0.00,11.000000,,2013-08-04 03:22:00,
2013-08-03 21:32:00,62.0,45.0,-100.00,North,354,14.0,18.0,53,0.00,,,0.00,11.000000,,2013-08-04 03:32:00,
2013-08-03 21:42:00,62.0,45.0,-100.00,North,354,14.0,18.0,53,0.00,,,0.00,11.000000,,2013-08-04 03:42:00,
2013-08-03 22:12:00,60.0,42.0,-100.00,South,188,11.0,20.0,52,0.00,,,0.00,0.000000,,2013-08-04 04:12:00,
2013-08-03 22:22:00,60.0,42.0,-100.00,South,188,11.0,20.0,52,0.00,,,0.00,0.000000,,2013-08-04 04:22:00,
2013-08-03 22:32:00,60.0,42.0,-100.00,South,188,11.0,20.0,52,0.00,,,0.00,0.000000,,2013-08-04 04:32:00,
2013-08-03 22:42:00,60.0,42.0,-100.00,South,188,11.0,20.0,52,0.00,,,0.00,0.000000,,2013-08-04 04:42:00,
2013-08-03 23:12:00,60.0,44.0,-100.00,SSE,153,9.0,16.0,56,0.00,,,0.00,0.000000,,2013-08-04 05:12:00,
2013-08-03 23:22:00,60.0,44.0,-100.00,SSE,153,9.0,16.0,56,0.00,,,0.00,0.000000,,2013-08-04 05:22:00,
2013-08-03 23:32:00,60.0,44.0,-100.00,SSE,153,9.0,16.0,56,0.00,,,0.00,0.000000,,2013-08-04 05:32:00,
2013-08-03 23:42:00,60.0,44.0,-100.00,SSE,153,9.0,16.0,56,0.00,,,0.00,0.000000,,2013-08-04 05:42:00,